createdAt,value
2024-05-09T00:00:46.447Z,82.71
2024-05-09T00:03:14.308Z,82.05
2024-05-09T00:05:42.737Z,82.76
2024-05-09T00:08:11.298Z,89.03
2024-05-09T00:10:40.387Z,87.77
2024-05-09T00:13:09.977Z,88.53
2024-05-09T00:15:38.052Z,86.29
2024-05-09T00:18:07.509Z,88.36
2024-05-09T00:20:39.507Z,91.28
2024-05-09T00:23:15.830Z,94.41
2024-05-09T00:25:44.368Z,90.57
2024-05-09T00:28:12.913Z,89.08
2024-05-09T00:30:40.804Z,86.19
2024-05-09T00:33:10.393Z,85.38
2024-05-09T00:35:39.221Z,84.34
2024-05-09T00:38:07.082Z,84.34
2024-05-09T00:40:40.166Z,84.27
2024-05-09T00:43:11.213Z,83.24
2024-05-09T00:45:39.221Z,83.89
2024-05-09T00:48:09.331Z,85.07
2024-05-09T00:50:41.792Z,90.33
2024-05-09T00:53:15.111Z,99.79
2024-05-09T00:55:43.124Z,95.84
2024-05-09T00:58:14.096Z,92.21
2024-05-09T01:00:42.040Z,90.10
2024-05-09T01:03:12.555Z,88.80
2024-05-09T01:05:42.336Z,87.66
2024-05-09T01:08:10.984Z,89.61
2024-05-09T01:10:40.797Z,91.58
2024-05-09T01:13:10.382Z,88.76
2024-05-09T01:15:37.934Z,87.33
2024-05-09T01:18:09.855Z,86.31
2024-05-09T01:20:42.279Z,86.09
2024-05-09T01:23:14.510Z,85.20
2024-05-09T01:25:44.436Z,84.74
2024-05-09T01:28:12.108Z,84.67
2024-05-09T01:30:39.588Z,84.67
2024-05-09T01:33:09.630Z,83.31
2024-05-09T01:35:41.831Z,83.14
2024-05-09T01:38:14.286Z,84.61
2024-05-09T01:40:41.913Z,83.53
2024-05-09T01:43:10.966Z,84.32
2024-05-09T01:45:40.336Z,83.67
2024-05-09T01:48:09.266Z,84.25
2024-05-09T01:50:40.769Z,84.05
2024-05-09T01:53:12.176Z,93.81
2024-05-09T01:55:40.071Z,93.17
2024-05-09T01:58:08.804Z,87.65
2024-05-09T02:00:40.843Z,85.38
2024-05-09T02:03:14.898Z,85.33
2024-05-09T02:08:24.436Z,88.44
2024-05-09T02:10:52.194Z,85.91
2024-05-09T02:13:19.799Z,84.45
2024-05-09T02:15:47.313Z,84.17
2024-05-09T02:18:15.043Z,93.18
2024-05-09T02:20:43.436Z,88.19
2024-05-09T02:23:11.976Z,86.28
2024-05-09T02:25:40.184Z,88.32
2024-05-09T02:28:07.805Z,93.78
2024-05-09T02:30:39.886Z,93.27
2024-05-09T02:33:14.286Z,87.77
2024-05-09T02:35:44.136Z,91.53
2024-05-09T02:38:12.973Z,87.32
2024-05-09T02:40:41.193Z,94.37
2024-05-09T02:43:11.010Z,98.57
2024-05-09T02:45:40.051Z,100.00
2024-05-09T02:48:11.413Z,99.08
2024-05-09T02:50:44.393Z,94.19
2024-05-09T02:53:12.637Z,91.49
2024-05-09T02:55:40.769Z,88.90
2024-05-09T02:58:08.787Z,90.48
2024-05-09T03:00:40.301Z,90.57
2024-05-09T03:03:12.900Z,88.83
2024-05-09T03:05:43.370Z,88.02
2024-05-09T03:08:11.270Z,87.50
2024-05-09T03:10:39.575Z,86.81
2024-05-09T03:13:14.140Z,86.75
2024-05-09T03:15:43.149Z,89.05
2024-05-09T03:18:11.601Z,93.68
2024-05-09T03:20:40.172Z,99.19
2024-05-09T03:23:09.883Z,100.00
2024-05-09T03:25:38.960Z,100.00
2024-05-09T03:28:06.960Z,100.00
2024-05-09T03:30:41.011Z,99.38
2024-05-09T03:33:13.459Z,95.44
2024-05-09T03:35:42.043Z,95.75
2024-05-09T03:38:09.964Z,93.34
2024-05-09T03:40:37.914Z,95.06
2024-05-09T03:43:05.515Z,92.93
2024-05-09T03:45:33.076Z,93.02
2024-05-09T03:48:00.812Z,96.73
2024-05-09T03:50:33.849Z,96.97
2024-05-09T03:53:03.498Z,96.61
2024-05-09T03:55:31.321Z,96.49
2024-05-09T03:57:59.362Z,93.94
2024-05-09T04:00:35.170Z,94.57
2024-05-09T04:03:09.328Z,91.69
2024-05-09T04:05:41.020Z,95.48
2024-05-09T04:08:10.296Z,98.15
2024-05-09T04:10:38.190Z,100.00
2024-05-09T04:13:05.824Z,99.73
2024-05-09T04:15:33.537Z,99.41
2024-05-09T04:18:01.940Z,100.00
2024-05-09T04:20:37.658Z,100.00
2024-05-09T04:23:11.068Z,100.00
2024-05-09T04:25:38.888Z,100.00
2024-05-09T04:28:07.218Z,100.00
2024-05-09T04:30:38.926Z,100.00
2024-05-09T04:33:14.283Z,100.00
2024-05-09T04:35:43.728Z,100.00
2024-05-09T04:38:12.347Z,100.00
2024-05-09T04:40:39.940Z,100.00
2024-05-09T04:43:14.346Z,100.00
2024-05-09T04:45:42.447Z,100.00
2024-05-09T04:48:10.207Z,100.00
2024-05-09T04:50:39.452Z,99.58
2024-05-09T04:53:11.548Z,100.00
2024-05-09T04:55:40.807Z,100.00
2024-05-09T04:58:12.226Z,100.00
2024-05-09T05:00:41.049Z,100.00
2024-05-09T05:03:13.399Z,100.00
2024-05-09T05:05:44.970Z,100.00
2024-05-09T05:08:18.820Z,100.00
2024-05-09T05:10:48.220Z,100.00
2024-05-09T05:13:18.230Z,98.96
2024-05-09T05:15:47.353Z,98.17
2024-05-09T05:18:16.121Z,99.19
2024-05-09T05:20:44.716Z,99.83
2024-05-09T05:23:13.796Z,100.00
2024-05-09T05:25:45.075Z,100.00
2024-05-09T05:28:12.670Z,98.73
2024-05-09T05:30:41.496Z,100.00
2024-05-09T05:33:18.897Z,98.46
2024-05-09T05:35:47.038Z,93.39
2024-05-09T05:38:14.669Z,92.37
2024-05-09T05:40:42.245Z,94.27
2024-05-09T05:43:17.072Z,92.69
2024-05-09T05:45:44.852Z,93.76
2024-05-09T05:48:14.128Z,93.66
2024-05-09T05:50:41.908Z,94.10
2024-05-09T05:53:10.818Z,93.11
2024-05-09T05:55:41.056Z,94.51
2024-05-09T05:58:13.390Z,95.64
2024-05-09T06:00:42.784Z,94.16
2024-05-09T06:03:13.448Z,89.17
2024-05-09T06:05:46.139Z,91.57
2024-05-09T06:08:14.004Z,91.20
2024-05-09T06:10:42.127Z,89.01
2024-05-09T06:13:11.679Z,88.37
2024-05-09T06:15:41.032Z,89.17
2024-05-09T06:18:10.966Z,90.45
2024-05-09T06:20:42.808Z,89.57
2024-05-09T06:25:39.521Z,87.97
2024-05-09T06:28:07.185Z,86.92
2024-05-09T06:30:42.267Z,86.44
2024-05-09T06:33:13.645Z,89.38
2024-05-09T06:35:44.623Z,88.64
2024-05-09T06:38:12.805Z,84.91
2024-05-09T06:40:43.790Z,81.11
2024-05-09T06:43:18.098Z,77.54
2024-05-09T06:45:52.850Z,76.59
2024-05-09T06:48:21.629Z,80.62
2024-05-09T06:50:50.869Z,74.94
2024-05-09T06:53:21.863Z,73.08
2024-05-09T06:55:50.124Z,78.21
2024-05-09T06:58:17.797Z,77.05
2024-05-09T07:00:45.423Z,73.32
2024-05-09T07:03:17.180Z,76.65
2024-05-09T07:05:47.954Z,78.52
2024-05-09T07:08:17.591Z,69.34
2024-05-09T07:10:45.462Z,72.87
2024-05-09T07:13:14.391Z,71.81
2024-05-09T07:15:42.833Z,73.14
2024-05-09T07:18:17.802Z,67.50
2024-05-09T07:20:47.857Z,66.31
2024-05-09T07:23:16.363Z,66.69
2024-05-09T07:25:44.414Z,65.64
2024-05-09T07:28:16.904Z,65.79
2024-05-09T07:30:44.648Z,67.98
2024-05-09T07:33:23.871Z,71.40
2024-05-09T07:35:52.708Z,66.22
2024-05-09T07:38:20.826Z,64.07
2024-05-09T07:40:48.695Z,61.88
2024-05-09T07:43:16.620Z,63.46
2024-05-09T07:45:52.407Z,62.09
2024-05-09T07:52:38.412Z,62.04
2024-05-09T07:53:49.789Z,63.76
2024-05-09T07:56:22.709Z,64.16
2024-05-09T07:58:54.124Z,63.06
2024-05-09T08:01:22.439Z,65.17
2024-05-09T08:03:50.427Z,66.25
2024-05-09T08:06:18.296Z,64.19
2024-05-09T08:08:47.498Z,62.64
2024-05-09T08:11:15.070Z,64.46
2024-05-09T08:13:42.564Z,63.91
2024-05-09T08:16:10.359Z,62.29
2024-05-09T08:18:39.441Z,68.78
2024-05-09T08:21:07.094Z,65.62
2024-05-09T08:23:34.747Z,62.48
2024-05-09T08:26:02.305Z,63.31
2024-05-09T08:28:29.909Z,67.53
2024-05-09T08:30:57.623Z,62.47
2024-05-09T08:33:25.771Z,63.63
2024-05-09T08:35:54.548Z,61.20
2024-05-09T08:38:22.085Z,60.69
2024-05-09T08:40:50.716Z,64.19
2024-05-09T08:43:20.705Z,60.86
2024-05-09T08:45:50.261Z,62.63
2024-05-09T08:48:20.290Z,59.25
2024-05-09T08:50:50.776Z,59.87
2024-05-09T08:53:18.681Z,58.19
2024-05-09T08:55:47.372Z,57.04
2024-05-09T08:58:20.465Z,58.32
2024-05-09T09:00:49.437Z,57.52
2024-05-09T09:03:27.585Z,55.51
2024-05-09T09:05:59.636Z,56.08
2024-05-09T09:08:27.364Z,60.83
2024-05-09T09:10:59.386Z,57.82
2024-05-09T09:13:28.223Z,54.52
2024-05-09T09:15:57.894Z,55.06
2024-05-09T09:18:27.312Z,53.66
2024-05-09T09:20:55.359Z,52.78
2024-05-09T09:23:23.200Z,51.89
2024-05-09T09:25:52.121Z,50.36
2024-05-09T09:28:23.703Z,50.66
2024-05-09T09:30:51.356Z,50.30
2024-05-09T09:33:19.275Z,49.42
2024-05-09T09:35:47.304Z,46.99
2024-05-09T09:38:19.738Z,45.86
2024-05-09T09:40:49.726Z,45.35
2024-05-09T09:43:22.871Z,48.66
2024-05-09T09:45:53.026Z,47.53
2024-05-09T09:48:22.981Z,45.04
2024-05-09T09:50:53.021Z,52.05
2024-05-09T09:53:20.578Z,47.92
2024-05-09T09:55:49.023Z,47.04
2024-05-09T09:58:20.062Z,44.75
2024-05-09T10:00:47.842Z,45.81
2024-05-09T10:03:15.529Z,45.53
2024-05-09T10:05:46.442Z,45.51
2024-05-09T10:08:17.968Z,45.42
2024-05-09T10:10:48.832Z,44.38
2024-05-09T10:13:16.715Z,44.45
2024-05-09T10:15:51.726Z,44.45
2024-05-09T10:18:28.257Z,43.86
2024-05-09T10:20:59.668Z,51.69
2024-05-09T10:23:29.428Z,50.18
2024-05-09T10:25:58.129Z,49.68
2024-05-09T10:28:29.672Z,50.03
2024-05-09T10:31:16.753Z,48.74
2024-05-09T10:33:50.471Z,51.78
2024-05-09T10:36:27.017Z,49.45
2024-05-09T10:38:55.812Z,51.11
2024-05-09T10:41:24.103Z,48.90
2024-05-09T10:43:52.319Z,46.58
2024-05-09T10:46:20.380Z,49.46
2024-05-09T10:48:50.140Z,51.38
2024-05-09T10:51:21.997Z,55.59
2024-05-09T10:53:49.506Z,51.59
2024-05-09T10:56:17.325Z,51.00
2024-05-09T10:58:45.284Z,49.36
2024-05-09T11:01:14.104Z,47.91
2024-05-09T11:03:42.763Z,46.31
2024-05-09T11:06:12.093Z,46.00
2024-05-09T11:08:39.974Z,44.17
2024-05-09T11:11:08.926Z,42.65
2024-05-09T11:13:38.361Z,42.98
2024-05-09T11:16:07.678Z,45.16
2024-05-09T11:18:38.348Z,42.76
2024-05-09T11:21:13.840Z,41.68
2024-05-09T11:23:42.022Z,40.39
2024-05-09T11:26:11.125Z,41.74
2024-05-09T11:28:38.786Z,41.15
2024-05-09T11:31:08.646Z,41.77
2024-05-09T11:33:41.561Z,45.82
2024-05-09T11:36:10.070Z,45.11
2024-05-09T11:38:37.833Z,44.99
2024-05-09T11:41:06.084Z,45.15
2024-05-09T11:43:34.021Z,45.35
2024-05-09T11:46:03.535Z,48.13
2024-05-09T11:48:32.327Z,46.52
2024-05-09T11:51:00.293Z,47.63
2024-05-09T11:53:27.854Z,47.55
2024-05-09T11:55:55.471Z,47.33
2024-05-09T11:58:23.664Z,48.26
2024-05-09T12:00:51.519Z,47.39
2024-05-09T12:03:19.388Z,48.10
2024-05-09T12:05:47.166Z,45.82
2024-05-09T12:08:15.001Z,44.64
2024-05-09T12:10:42.759Z,43.10
2024-05-09T12:13:10.397Z,43.12
2024-05-09T12:15:38.824Z,44.17
2024-05-09T12:18:08.324Z,43.63
2024-05-09T12:20:39.248Z,45.13
2024-05-09T12:23:10.087Z,43.86
2024-05-09T12:25:39.897Z,43.81
2024-05-09T12:28:09.160Z,45.05
2024-05-09T12:30:41.587Z,44.16
2024-05-09T12:33:14.025Z,43.15
2024-05-09T12:35:44.345Z,47.02
2024-05-09T12:38:15.608Z,47.52
2024-05-09T12:40:43.542Z,48.79
2024-05-09T12:43:11.960Z,51.81
2024-05-09T12:45:40.760Z,51.44
2024-05-09T12:48:12.442Z,50.44
2024-05-09T12:50:41.756Z,51.43
2024-05-09T12:53:09.697Z,50.77
2024-05-09T12:55:44.908Z,52.54
2024-05-09T12:58:22.519Z,50.44
2024-05-09T13:00:52.712Z,46.48
2024-05-09T13:03:20.958Z,45.42
2024-05-09T13:05:50.100Z,44.66
2024-05-09T13:08:17.798Z,48.88
2024-05-09T13:10:45.436Z,44.26
2024-05-09T13:13:13.242Z,45.03
2024-05-09T13:15:41.180Z,44.55
2024-05-09T13:18:09.729Z,44.01
2024-05-09T13:20:37.710Z,42.31
2024-05-09T13:23:07.609Z,44.67
2024-05-09T13:25:37.397Z,42.58
2024-05-09T13:28:07.432Z,42.69
2024-05-09T13:30:40.357Z,41.36
2024-05-09T13:33:11.638Z,45.05
2024-05-09T13:35:41.864Z,43.55
2024-05-09T13:38:10.955Z,44.21
2024-05-09T13:40:38.681Z,40.91
2024-05-09T13:43:06.738Z,41.45
2024-05-09T13:45:35.626Z,41.15
2024-05-09T13:48:04.286Z,40.84
2024-05-09T13:50:35.676Z,43.02
2024-05-09T13:53:08.764Z,40.80
2024-05-09T13:55:39.024Z,40.66
2024-05-09T13:58:07.776Z,41.34
2024-05-09T14:03:06.512Z,40.93
2024-05-09T14:05:34.435Z,42.60
2024-05-09T14:08:02.124Z,40.99
2024-05-09T14:10:31.767Z,41.69
2024-05-09T14:13:01.432Z,42.64
2024-05-09T14:15:29.244Z,41.80
2024-05-09T14:17:56.977Z,43.39
2024-05-09T14:20:30.913Z,42.77
2024-05-09T14:23:01.065Z,40.46
2024-05-09T14:25:36.601Z,42.75
2024-05-09T14:28:07.036Z,46.46
2024-05-09T14:30:37.687Z,47.80
2024-05-09T14:33:08.000Z,50.00
2024-05-09T14:35:37.689Z,49.96
2024-05-09T14:38:06.776Z,48.92
2024-05-09T14:40:41.166Z,49.16
2024-05-09T14:43:13.442Z,49.46
2024-05-09T14:45:41.837Z,49.36
2024-05-09T14:48:10.128Z,49.99
2024-05-09T14:50:40.016Z,50.55
2024-05-09T14:53:10.602Z,52.41
2024-05-09T14:55:40.439Z,53.09
2024-05-09T14:58:10.854Z,49.83
2024-05-09T15:00:47.933Z,48.76
2024-05-09T15:03:21.092Z,51.12
2024-05-09T15:05:49.968Z,47.96
2024-05-09T15:08:18.927Z,47.83
2024-05-09T15:10:47.206Z,49.57
2024-05-09T15:13:16.774Z,46.54
2024-05-09T15:15:45.156Z,48.07
2024-05-09T15:18:14.120Z,48.84
2024-05-09T15:20:43.912Z,47.98
2024-05-09T15:23:11.669Z,49.17
2024-05-09T15:25:39.338Z,48.20
2024-05-09T15:28:08.298Z,47.69
2024-05-09T15:30:36.702Z,48.36
2024-05-09T15:33:05.538Z,51.08
2024-05-09T15:35:34.445Z,48.01
2024-05-09T15:38:03.333Z,46.01
2024-05-09T15:40:38.241Z,52.01
2024-05-09T15:43:10.543Z,48.21
2024-05-09T15:45:39.993Z,45.68
2024-05-09T15:48:09.900Z,47.21
2024-05-09T15:50:40.920Z,46.38
2024-05-09T15:53:11.729Z,46.86
2024-05-09T15:55:40.084Z,49.76
2024-05-09T15:58:07.997Z,48.14
2024-05-09T16:00:39.982Z,47.84
2024-05-09T16:03:11.748Z,49.97
2024-05-09T16:05:41.183Z,48.63
2024-05-09T16:08:09.412Z,49.95
2024-05-09T16:10:43.472Z,50.38
2024-05-09T16:13:12.475Z,50.77
2024-05-09T16:15:40.352Z,49.64
2024-05-09T16:18:08.400Z,49.05
2024-05-09T16:20:40.211Z,49.01
2024-05-09T16:23:10.397Z,48.10
2024-05-09T16:25:38.474Z,48.70
2024-05-09T16:28:09.956Z,49.72
2024-05-09T16:30:41.850Z,50.50
2024-05-09T16:33:11.083Z,50.92
2024-05-09T16:35:39.616Z,48.50
2024-05-09T16:38:07.455Z,47.79
2024-05-09T16:40:39.240Z,49.35
2024-05-09T16:43:10.265Z,47.41
2024-05-09T16:45:39.754Z,48.25
2024-05-09T16:48:08.465Z,49.14
2024-05-09T16:50:36.832Z,47.82
2024-05-09T16:53:06.167Z,47.85
2024-05-09T16:55:34.745Z,48.38
2024-05-09T16:58:03.553Z,50.44
2024-05-09T17:00:39.642Z,50.31
2024-05-09T17:03:15.121Z,50.02
2024-05-09T17:05:45.975Z,49.73
2024-05-09T17:08:16.471Z,54.42
2024-05-09T17:10:45.769Z,54.69
2024-05-09T17:13:13.424Z,51.93
2024-05-09T17:15:41.085Z,50.98
2024-05-09T17:18:10.105Z,49.86
2024-05-09T17:20:38.109Z,49.81
2024-05-09T17:23:13.375Z,49.56
2024-05-09T17:25:42.393Z,49.93
2024-05-09T17:28:11.226Z,49.37
2024-05-09T17:30:41.033Z,49.61
2024-05-09T17:33:11.142Z,49.80
2024-05-09T17:35:39.833Z,49.44
2024-05-09T17:38:07.686Z,49.06
2024-05-09T17:40:37.572Z,49.35
2024-05-09T17:43:08.797Z,49.83
2024-05-09T17:45:39.244Z,51.06
2024-05-09T17:48:09.527Z,50.40
2024-05-09T17:50:38.122Z,50.81
2024-05-09T17:53:07.101Z,50.83
2024-05-09T17:55:35.726Z,52.70
2024-05-09T17:58:04.898Z,52.00
2024-05-09T18:00:39.037Z,52.84
2024-05-09T18:03:13.612Z,54.51
2024-05-09T18:05:43.334Z,52.43
2024-05-09T18:08:12.027Z,51.27
2024-05-09T18:10:43.127Z,52.40
2024-05-09T18:13:12.361Z,51.79
2024-05-09T18:15:40.496Z,52.59
2024-05-09T18:18:09.297Z,53.03
2024-05-09T18:20:43.147Z,53.20
2024-05-09T18:23:16.084Z,52.75
2024-05-09T18:25:45.430Z,54.38
2024-05-09T18:28:13.185Z,55.37
2024-05-09T18:30:41.240Z,54.01
2024-05-09T18:33:11.556Z,54.46
2024-05-09T18:35:39.749Z,57.47
2024-05-09T18:38:07.400Z,55.69
2024-05-09T18:40:37.468Z,54.88
2024-05-09T18:43:08.440Z,54.18
2024-05-09T18:45:40.403Z,53.49
2024-05-09T18:48:10.021Z,54.29
2024-05-09T18:50:40.507Z,53.26
2024-05-09T18:53:11.738Z,53.63
2024-05-09T18:55:40.834Z,53.70
2024-05-09T18:58:08.539Z,53.34
2024-05-09T19:00:39.009Z,55.32
2024-05-09T19:03:11.562Z,56.55
2024-05-09T19:05:42.643Z,57.87
2024-05-09T19:08:11.277Z,57.44
2024-05-09T19:10:39.729Z,56.62
2024-05-09T19:13:11.895Z,56.87
2024-05-09T19:15:42.197Z,55.68
2024-05-09T19:18:11.781Z,55.62
2024-05-09T19:20:39.797Z,55.60
2024-05-09T19:23:07.708Z,56.23
2024-05-09T19:25:36.305Z,56.34
2024-05-09T19:28:05.589Z,56.48
2024-05-09T19:30:39.316Z,56.78
2024-05-09T19:33:11.113Z,56.57
2024-05-09T19:35:39.930Z,56.90
2024-05-09T19:38:07.912Z,57.35
2024-05-09T19:40:35.991Z,58.02
2024-05-09T19:43:05.798Z,58.15
2024-05-09T19:45:35.528Z,59.62
2024-05-09T19:48:04.884Z,59.23
2024-05-09T19:50:40.919Z,58.94
2024-05-09T19:53:12.172Z,60.66
2024-05-09T19:55:40.822Z,60.55
2024-05-09T19:58:09.932Z,60.80
2024-05-09T20:00:41.215Z,61.34
2024-05-09T20:03:15.268Z,60.65
2024-05-09T20:05:46.740Z,61.00
2024-05-09T20:08:15.032Z,60.65
2024-05-09T20:10:42.809Z,62.06
2024-05-09T20:13:10.490Z,62.18
2024-05-09T20:15:38.590Z,61.25
2024-05-09T20:18:07.256Z,60.79
2024-05-09T20:20:39.903Z,60.51
2024-05-09T20:23:11.686Z,61.37
2024-05-09T20:25:39.659Z,61.09
2024-05-09T20:28:07.796Z,62.06
2024-05-09T20:30:36.336Z,62.00
2024-05-09T20:33:07.721Z,62.24
2024-05-09T20:35:36.563Z,62.35
2024-05-09T20:38:04.971Z,62.27
2024-05-09T20:40:37.080Z,62.17
2024-05-09T20:43:08.172Z,61.92
2024-05-09T20:45:36.435Z,63.13
2024-05-09T20:48:04.310Z,62.76
2024-05-09T20:50:37.872Z,63.64
2024-05-09T20:53:13.859Z,63.31
2024-05-09T20:55:43.812Z,63.69
2024-05-09T20:58:12.246Z,64.34
2024-05-09T21:00:43.523Z,64.84
2024-05-09T21:03:15.172Z,65.72
2024-05-09T21:05:44.191Z,66.30
2024-05-09T21:08:11.854Z,65.95
2024-05-09T21:10:39.496Z,66.41
2024-05-09T21:13:07.534Z,66.81
2024-05-09T21:15:36.283Z,67.47
2024-05-09T21:18:04.991Z,68.53
2024-05-09T21:20:34.934Z,67.95
2024-05-09T21:23:03.542Z,67.64
2024-05-09T21:25:32.151Z,67.47
2024-05-09T21:28:00.591Z,67.52
2024-05-09T21:30:38.103Z,67.44
2024-05-09T21:33:11.562Z,67.51
2024-05-09T21:35:41.724Z,68.30
2024-05-09T21:38:09.394Z,68.42
2024-05-09T21:40:38.168Z,68.99
2024-05-09T21:43:08.018Z,71.16
2024-05-09T21:45:37.101Z,71.26
2024-05-09T21:48:06.184Z,71.51
2024-05-09T21:50:40.209Z,71.95
2024-05-09T21:53:11.224Z,72.38
2024-05-09T21:55:39.025Z,72.77
2024-05-09T21:58:06.642Z,71.94
2024-05-09T22:00:38.145Z,71.98
2024-05-09T22:03:08.841Z,72.27
2024-05-09T22:05:37.744Z,71.82
2024-05-09T22:08:05.816Z,72.42
2024-05-09T22:10:35.785Z,72.48
2024-05-09T22:13:06.043Z,75.42
2024-05-09T22:15:39.716Z,74.29
2024-05-09T22:18:09.728Z,72.38
2024-05-09T22:20:44.812Z,72.11
2024-05-09T22:23:14.440Z,72.00
2024-05-09T22:25:42.485Z,72.38
2024-05-09T22:28:10.206Z,73.85
2024-05-09T22:30:39.852Z,74.23
2024-05-09T22:33:10.232Z,76.47
2024-05-09T22:35:39.672Z,76.16
2024-05-09T22:38:07.399Z,76.31
2024-05-09T22:40:45.462Z,78.11
2024-05-09T22:43:24.626Z,79.20
2024-05-09T22:45:56.707Z,78.63
2024-05-09T22:48:25.735Z,82.38
2024-05-09T22:50:54.626Z,82.39
2024-05-09T22:53:26.413Z,81.02
2024-05-09T22:55:54.540Z,78.92
2024-05-09T22:58:24.133Z,79.12
2024-05-09T23:00:52.087Z,82.71
2024-05-09T23:03:21.799Z,82.01
2024-05-09T23:05:50.010Z,81.96
2024-05-09T23:08:17.602Z,83.43
2024-05-09T23:10:45.127Z,86.31
2024-05-09T23:13:12.712Z,87.38
2024-05-09T23:15:40.312Z,85.43
2024-05-09T23:18:08.583Z,83.11
2024-05-09T23:20:39.092Z,83.09
2024-05-09T23:23:11.988Z,83.56
2024-05-09T23:25:41.786Z,84.88
2024-05-09T23:28:10.591Z,83.88
2024-05-09T23:30:40.452Z,85.73
2024-05-09T23:33:13.796Z,87.06
2024-05-09T23:35:44.382Z,84.23
2024-05-09T23:38:12.988Z,82.88
2024-05-09T23:40:42.035Z,82.07
2024-05-09T23:43:12.301Z,81.09
2024-05-09T23:45:40.674Z,79.88
2024-05-09T23:48:08.728Z,79.21
2024-05-09T23:50:38.446Z,78.73
2024-05-09T23:53:08.979Z,79.92
2024-05-09T23:55:37.848Z,78.94
2024-05-09T23:58:06.236Z,79.20
